createdAt,value
2023-02-08T00:00:02.740Z,102757.19
2023-02-08T00:02:29.342Z,102751.00
2023-02-08T00:04:55.920Z,102757.09
2023-02-08T00:07:22.521Z,102758.84
2023-02-08T00:09:49.384Z,102758.09
2023-02-08T00:12:16.941Z,102755.56
2023-02-08T00:14:43.528Z,102760.09
2023-02-08T00:17:10.124Z,102764.69
2023-02-08T00:19:36.709Z,102760.56
2023-02-08T00:22:03.296Z,102762.53
2023-02-08T00:24:29.882Z,102764.50
2023-02-08T00:26:56.488Z,102761.28
2023-02-08T00:29:23.082Z,102766.69
2023-02-08T00:31:49.737Z,102761.63
2023-02-08T00:34:16.330Z,102766.22
2023-02-08T00:36:42.875Z,102760.16
2023-02-08T00:39:09.520Z,102765.50
2023-02-08T00:41:36.104Z,102764.78
2023-02-08T00:44:02.686Z,102769.31
2023-02-08T00:46:29.351Z,102765.97
2023-02-08T00:48:55.890Z,102760.94
2023-02-08T00:51:22.536Z,102772.50
2023-02-08T00:53:49.090Z,102757.88
2023-02-08T00:56:16.150Z,102771.19
2023-02-08T00:58:43.100Z,102764.38
2023-02-08T01:01:10.047Z,102754.88
2023-02-08T01:03:39.443Z,102760.19
2023-02-08T01:06:13.672Z,102759.38
2023-02-08T01:08:40.362Z,102757.56
2023-02-08T01:11:16.306Z,102749.78
2023-02-08T01:13:42.953Z,102754.25
2023-02-08T01:16:11.156Z,102750.81
2023-02-08T01:18:38.540Z,102748.31
2023-02-08T01:21:13.988Z,102755.34
2023-02-08T01:23:41.552Z,102747.53
2023-02-08T01:26:10.184Z,102748.44
2023-02-08T01:28:37.271Z,102742.41
2023-02-08T01:31:08.950Z,102747.69
2023-02-08T01:33:36.302Z,102753.00
2023-02-08T01:36:03.498Z,102761.78
2023-02-08T01:38:30.907Z,102760.94
2023-02-08T01:40:57.496Z,102761.06
2023-02-08T01:43:29.855Z,102758.50
2023-02-08T01:45:56.447Z,102759.50
2023-02-08T01:48:37.507Z,102757.84
2023-02-08T01:51:13.481Z,102765.81
2023-02-08T01:53:41.457Z,102759.78
2023-02-08T01:56:13.124Z,102758.16
2023-02-08T01:58:51.464Z,102757.38
2023-02-08T02:01:18.299Z,102749.56
2023-02-08T02:03:45.172Z,102759.31
2023-02-08T02:06:17.067Z,102747.13
2023-02-08T02:09:05.488Z,102754.22
2023-02-08T02:11:32.315Z,102751.72
2023-02-08T02:13:59.107Z,102745.69
2023-02-08T02:16:25.691Z,102756.22
2023-02-08T02:18:52.554Z,102751.91
2023-02-08T02:21:22.161Z,102750.19
2023-02-08T02:24:17.562Z,102745.00
2023-02-08T02:27:05.587Z,102741.56
2023-02-08T02:29:32.133Z,102742.47
2023-02-08T02:32:22.146Z,102728.53
2023-02-08T02:34:58.833Z,102732.97
2023-02-08T02:37:49.255Z,102730.41
2023-02-08T02:40:36.992Z,102735.78
2023-02-08T02:43:42.881Z,102733.22
2023-02-08T02:46:27.180Z,102740.31
2023-02-08T02:49:02.564Z,102750.97
2023-02-08T02:51:33.925Z,102751.16
2023-02-08T02:54:07.152Z,102752.19
2023-02-08T02:56:43.208Z,102753.13
2023-02-08T02:59:11.629Z,102758.53
2023-02-08T03:01:39.490Z,102760.41
2023-02-08T03:04:33.675Z,102765.78
2023-02-08T03:07:14.585Z,102765.03
2023-02-08T03:09:50.443Z,102773.00
2023-02-08T03:12:49.017Z,102774.88
2023-02-08T03:15:30.390Z,102786.41
2023-02-08T03:18:12.161Z,102778.56
2023-02-08T03:20:43.160Z,102778.59
2023-02-08T03:23:19.672Z,102779.53
2023-02-08T03:26:37.148Z,102782.22
2023-02-08T03:29:14.073Z,102779.66
2023-02-08T03:32:06.728Z,102772.69
2023-02-08T03:35:15.400Z,102778.88
2023-02-08T03:38:05.408Z,102776.25
2023-02-08T03:40:35.173Z,102777.16
2023-02-08T03:43:09.094Z,102782.44
2023-02-08T03:45:52.641Z,102777.22
2023-02-08T03:48:21.884Z,102786.03
2023-02-08T03:50:52.726Z,102787.81
2023-02-08T03:53:22.616Z,102787.84
2023-02-08T03:55:56.627Z,102784.34
2023-02-08T03:58:32.456Z,102790.53
2023-02-08T04:01:05.975Z,102780.88
2023-02-08T04:03:34.777Z,102786.16
2023-02-08T04:06:01.560Z,102778.28
2023-02-08T04:08:28.148Z,102780.94
2023-02-08T04:10:54.784Z,102782.69
2023-02-08T04:13:21.481Z,102788.88
2023-02-08T04:15:48.117Z,102786.25
2023-02-08T04:18:14.728Z,102787.16
2023-02-08T04:20:41.585Z,102796.84
2023-02-08T04:23:08.316Z,102800.38
2023-02-08T04:25:34.834Z,102797.75
2023-02-08T04:28:01.424Z,102789.81
2023-02-08T04:30:28.058Z,102786.28
2023-02-08T04:32:54.637Z,102781.03
2023-02-08T04:35:21.290Z,102787.19
2023-02-08T04:37:47.907Z,102779.28
2023-02-08T04:40:14.517Z,102774.88
2023-02-08T04:42:41.121Z,102780.16
2023-02-08T04:45:08.221Z,102782.81
2023-02-08T04:47:34.752Z,102775.78
2023-02-08T04:50:01.584Z,102779.28
2023-02-08T04:52:28.242Z,102781.94
2023-02-08T04:54:54.813Z,102783.72
2023-02-08T04:57:21.397Z,102780.16
2023-02-08T04:59:47.982Z,102781.94
2023-02-08T05:02:14.530Z,102778.44
2023-02-08T05:04:41.172Z,102789.84
2023-02-08T05:07:07.755Z,102789.84
2023-02-08T05:09:34.347Z,102793.38
2023-02-08T05:12:00.903Z,102790.72
2023-02-08T05:14:27.496Z,102787.22
2023-02-08T05:16:54.058Z,102791.63
2023-02-08T05:19:20.612Z,102810.09
2023-02-08T05:21:47.201Z,102803.91
2023-02-08T05:24:13.898Z,102810.09
2023-02-08T05:26:41.564Z,102816.25
2023-02-08T05:29:08.238Z,102813.63
2023-02-08T05:31:34.951Z,102813.59
2023-02-08T05:34:01.786Z,102817.09
2023-02-08T05:36:28.564Z,102814.47
2023-02-08T05:38:55.097Z,102817.09
2023-02-08T05:41:21.842Z,102812.66
2023-02-08T05:43:48.461Z,102817.94
2023-02-08T05:46:15.155Z,102813.53
2023-02-08T05:48:41.779Z,102812.63
2023-02-08T05:51:08.840Z,102816.09
2023-02-08T05:53:35.418Z,102810.81
2023-02-08T05:56:01.951Z,102806.41
2023-02-08T05:58:28.903Z,102813.44
2023-02-08T06:00:55.474Z,102822.25
2023-02-08T06:03:22.600Z,102824.00
2023-02-08T06:05:49.236Z,102831.88
2023-02-08T06:08:15.856Z,102838.00
2023-02-08T06:10:43.302Z,102840.63
2023-02-08T06:13:09.881Z,102848.53
2023-02-08T06:15:36.414Z,102849.34
2023-02-08T06:18:03.261Z,102850.22
2023-02-08T06:20:29.822Z,102853.69
2023-02-08T06:22:56.466Z,102852.81
2023-02-08T06:25:23.018Z,102845.78
2023-02-08T06:27:49.626Z,102851.97
2023-02-08T06:30:16.873Z,102852.78
2023-02-08T06:32:43.518Z,102857.19
2023-02-08T06:35:10.277Z,102857.19
2023-02-08T06:37:37.314Z,102859.81
2023-02-08T06:40:05.175Z,102848.41
2023-02-08T06:42:31.871Z,102856.34
2023-02-08T06:44:59.060Z,102851.97
2023-02-08T06:47:27.143Z,102859.94
2023-02-08T06:49:53.947Z,102859.97
2023-02-08T06:52:21.948Z,102862.63
2023-02-08T06:54:48.646Z,102864.44
2023-02-08T06:57:15.602Z,102866.28
2023-02-08T06:59:42.622Z,102862.81
2023-02-08T07:02:18.474Z,102869.00
2023-02-08T07:04:45.560Z,102867.28
2023-02-08T07:07:17.042Z,102870.00
2023-02-08T07:09:43.652Z,102870.91
2023-02-08T07:12:10.529Z,102874.47
2023-02-08T07:14:40.044Z,102865.66
2023-02-08T07:17:06.994Z,102864.81
2023-02-08T07:19:33.950Z,102879.78
2023-02-08T07:22:07.243Z,102883.31
2023-02-08T07:24:39.314Z,102892.13
2023-02-08T07:27:07.644Z,102886.84
2023-02-08T07:29:34.767Z,102886.84
2023-02-08T07:32:02.614Z,102894.78
2023-02-08T07:34:30.763Z,102892.13
2023-02-08T07:36:57.354Z,102893.03
2023-02-08T07:39:24.249Z,102900.97
2023-02-08T07:41:50.998Z,102895.66
2023-02-08T07:44:17.801Z,102896.50
2023-02-08T07:46:44.506Z,102895.63
2023-02-08T07:49:11.120Z,102900.03
2023-02-08T07:51:37.857Z,102906.16
2023-02-08T07:54:04.570Z,102901.72
2023-02-08T07:56:31.349Z,102899.06
2023-02-08T07:58:57.903Z,102899.03
2023-02-08T08:01:24.556Z,102906.97
2023-02-08T08:03:52.330Z,102906.03
2023-02-08T08:06:20.498Z,102907.72
2023-02-08T08:08:47.671Z,102905.09
2023-02-08T08:11:15.305Z,102914.75
2023-02-08T08:13:42.105Z,102917.34
2023-02-08T08:16:09.217Z,102919.03
2023-02-08T08:18:36.256Z,102921.59
2023-02-08T08:21:03.645Z,102917.09
2023-02-08T08:23:33.046Z,102921.44
2023-02-08T08:26:00.571Z,102918.69
2023-02-08T08:28:27.521Z,102922.13
2023-02-08T08:30:54.493Z,102928.19
2023-02-08T08:33:21.218Z,102921.88
2023-02-08T08:35:47.925Z,102920.81
2023-02-08T08:38:14.540Z,102925.13
2023-02-08T08:40:41.444Z,102923.22
2023-02-08T08:43:08.271Z,102928.41
2023-02-08T08:45:36.261Z,102915.88
2023-02-08T08:48:06.306Z,102919.16
2023-02-08T08:50:32.872Z,102925.09
2023-02-08T08:52:59.571Z,102925.81
2023-02-08T08:55:27.843Z,102927.34
2023-02-08T08:57:55.055Z,102919.09
2023-02-08T09:00:21.864Z,102923.34
2023-02-08T09:02:48.721Z,102922.31
2023-02-08T09:05:15.310Z,102939.72
2023-02-08T09:07:41.915Z,102932.19
2023-02-08T09:10:08.627Z,102923.75
2023-02-08T09:12:35.319Z,102930.75
2023-02-08T09:15:01.924Z,102935.56
2023-02-08T09:17:28.607Z,102942.94
2023-02-08T09:19:55.192Z,102943.81
2023-02-08T09:22:21.769Z,102951.75
2023-02-08T09:24:48.428Z,102943.69
2023-02-08T09:27:15.014Z,102944.47
2023-02-08T09:29:41.547Z,102948.56
2023-02-08T09:32:10.195Z,102945.31
2023-02-08T09:34:39.826Z,102950.47
2023-02-08T09:37:07.056Z,102950.34
2023-02-08T09:39:34.847Z,102942.56
2023-02-08T09:42:20.881Z,102950.53
2023-02-08T09:44:53.570Z,102949.25
2023-02-08T09:47:32.219Z,102936.84
2023-02-08T09:50:34.282Z,102939.16
2023-02-08T09:53:20.424Z,102939.88
2023-02-08T09:55:51.771Z,102940.16
2023-02-08T09:58:34.626Z,102933.88
2023-02-08T10:01:04.093Z,102944.13
2023-02-08T10:03:45.131Z,102933.06
2023-02-08T10:06:17.504Z,102939.00
2023-02-08T10:08:46.163Z,102938.13
2023-02-08T10:11:27.858Z,102936.03
2023-02-08T10:14:09.657Z,102933.09
2023-02-08T10:17:10.180Z,102942.91
2023-02-08T10:19:39.462Z,102928.66
2023-02-08T10:22:38.973Z,102928.34
2023-02-08T10:25:27.996Z,102925.19
2023-02-08T10:28:16.278Z,102939.41
2023-02-08T10:31:10.431Z,102933.50
2023-02-08T10:33:58.532Z,102932.16
2023-02-08T10:36:28.726Z,102928.28
2023-02-08T10:38:56.261Z,102921.81
2023-02-08T10:41:32.165Z,102928.94
2023-02-08T10:44:13.011Z,102933.38
2023-02-08T10:46:51.213Z,102934.81
2023-02-08T10:49:31.958Z,102933.19
2023-02-08T10:51:58.611Z,102914.06
2023-02-08T10:54:25.213Z,102923.47
2023-02-08T10:56:58.343Z,102922.84
2023-02-08T10:59:35.528Z,102926.00
2023-02-08T11:02:02.222Z,102916.97
2023-02-08T11:04:29.089Z,102923.34
2023-02-08T11:06:55.660Z,102917.28
2023-02-08T11:09:31.299Z,102908.78
2023-02-08T11:12:00.276Z,102908.94
2023-02-08T11:14:46.860Z,102912.47
2023-02-08T11:17:31.480Z,102914.72
2023-02-08T11:19:59.537Z,102922.16
2023-02-08T11:22:31.227Z,102920.25
2023-02-08T11:25:07.607Z,102923.75
2023-02-08T11:27:36.695Z,102918.81
2023-02-08T11:30:24.268Z,102919.91
2023-02-08T11:33:18.617Z,102914.97
2023-02-08T11:35:54.951Z,102915.84
2023-02-08T11:38:28.251Z,102911.00
2023-02-08T11:40:58.647Z,102905.59
2023-02-08T11:43:34.956Z,102907.88
2023-02-08T11:46:04.963Z,102908.88
2023-02-08T11:48:42.869Z,102901.91
2023-02-08T11:51:12.737Z,102893.00
2023-02-08T11:53:40.996Z,102895.72
2023-02-08T11:56:18.548Z,102887.69
2023-02-08T11:59:18.738Z,102895.16
2023-02-08T12:01:45.736Z,102885.03
2023-02-08T12:04:15.017Z,102892.53
2023-02-08T12:06:53.888Z,102894.69
2023-02-08T12:09:53.315Z,102884.53
2023-02-08T12:12:35.908Z,102895.09
2023-02-08T12:15:48.123Z,102891.03
2023-02-08T12:18:22.746Z,102892.72
2023-02-08T12:20:59.994Z,102891.00
2023-02-08T12:23:53.419Z,102894.41
2023-02-08T12:26:28.946Z,102887.53
2023-02-08T12:29:47.304Z,102894.19
2023-02-08T12:32:36.311Z,102897.63
2023-02-08T12:35:50.964Z,102891.09
2023-02-08T12:38:59.310Z,102886.81
2023-02-08T12:41:44.477Z,102882.25
2023-02-08T12:44:38.470Z,102881.03
2023-02-08T12:47:39.074Z,102877.56
2023-02-08T12:50:31.833Z,102872.53
2023-02-08T12:53:05.876Z,102866.66
2023-02-08T12:55:38.846Z,102875.66
2023-02-08T12:58:32.426Z,102877.50
2023-02-08T13:01:27.621Z,102869.94
2023-02-08T13:04:13.612Z,102870.00
2023-02-08T13:06:43.085Z,102868.34
2023-02-08T13:09:46.711Z,102862.28
2023-02-08T13:12:22.175Z,102862.63
2023-02-08T13:15:28.399Z,102859.25
2023-02-08T13:18:16.748Z,102872.28
2023-02-08T13:20:46.154Z,102865.72
2023-02-08T13:23:26.513Z,102869.09
2023-02-08T13:26:00.744Z,102877.22
2023-02-08T13:28:28.362Z,102865.31
2023-02-08T13:31:08.609Z,102874.91
2023-02-08T13:33:44.444Z,102867.13
2023-02-08T13:36:25.804Z,102877.97
2023-02-08T13:38:53.705Z,102874.22
2023-02-08T13:41:24.696Z,102865.84
2023-02-08T13:44:01.561Z,102871.00
2023-02-08T13:46:35.404Z,102862.06
2023-02-08T13:49:01.998Z,102873.44
2023-02-08T13:51:31.536Z,102880.81
2023-02-08T13:53:58.101Z,102876.25
2023-02-08T13:56:45.168Z,102882.66
2023-02-08T13:59:24.671Z,102889.41
2023-02-08T14:02:12.908Z,102896.19
2023-02-08T14:04:43.134Z,102886.94
2023-02-08T14:07:15.838Z,102885.97
2023-02-08T14:10:30.573Z,102902.78
2023-02-08T14:13:03.923Z,102897.19
2023-02-08T14:15:33.866Z,102893.66
2023-02-08T14:18:01.873Z,102884.31
2023-02-08T14:20:33.797Z,102877.63
2023-02-08T14:23:21.645Z,102877.75
2023-02-08T14:25:50.996Z,102879.16
2023-02-08T14:28:32.128Z,102876.34
2023-02-08T14:31:01.206Z,102880.97
2023-02-08T14:33:38.706Z,102880.91
2023-02-08T14:36:08.813Z,102881.41
2023-02-08T14:38:52.406Z,102879.97
2023-02-08T14:41:54.485Z,102886.06
2023-02-08T14:44:39.479Z,102888.91
2023-02-08T14:47:36.943Z,102890.53
2023-02-08T14:50:26.141Z,102879.84
2023-02-08T14:52:58.904Z,102882.78
2023-02-08T14:55:30.395Z,102876.25
2023-02-08T14:58:00.688Z,102875.31
2023-02-08T15:00:34.194Z,102885.84
2023-02-08T15:03:02.093Z,102889.47
2023-02-08T15:05:31.724Z,102886.47
2023-02-08T15:08:00.260Z,102883.34
2023-02-08T15:10:28.634Z,102899.50
2023-02-08T15:13:02.480Z,102904.81
2023-02-08T15:15:36.637Z,102900.97
2023-02-08T15:18:06.207Z,102902.88
2023-02-08T15:20:35.923Z,102904.06
2023-02-08T15:23:19.132Z,102905.16
2023-02-08T15:25:56.043Z,102911.44
2023-02-08T15:28:25.250Z,102908.63
2023-02-08T15:31:09.263Z,102905.31
2023-02-08T15:33:39.337Z,102908.09
2023-02-08T15:36:08.912Z,102909.41
2023-02-08T15:38:38.809Z,102915.44
2023-02-08T15:41:08.469Z,102923.78
2023-02-08T15:43:37.297Z,102925.09
2023-02-08T15:46:06.978Z,102923.31
2023-02-08T15:48:35.938Z,102931.94
2023-02-08T15:51:03.072Z,102930.41
2023-02-08T15:53:30.956Z,102931.50
2023-02-08T15:56:03.898Z,102927.72
2023-02-08T15:58:35.678Z,102930.88
2023-02-08T16:01:05.373Z,102932.75
2023-02-08T16:03:33.352Z,102934.13
2023-02-08T16:06:06.693Z,102933.47
2023-02-08T16:08:39.080Z,102946.06
2023-02-08T16:11:23.135Z,102946.41
2023-02-08T16:13:53.151Z,102945.69
2023-02-08T16:16:26.648Z,102951.19
2023-02-08T16:19:01.379Z,102952.09
2023-02-08T16:21:35.393Z,102951.38
2023-02-08T16:24:28.330Z,102946.31
2023-02-08T16:26:57.067Z,102953.50
2023-02-08T16:29:46.287Z,102952.72
2023-02-08T16:32:28.463Z,102956.47
2023-02-08T16:34:55.514Z,102968.09
2023-02-08T16:37:33.789Z,102967.28
2023-02-08T16:40:20.539Z,102972.75
2023-02-08T16:42:47.499Z,102974.69
2023-02-08T16:45:17.479Z,102986.28
2023-02-08T16:47:50.064Z,102980.19
2023-02-08T16:50:23.166Z,102989.22
2023-02-08T16:52:55.212Z,102990.06
2023-02-08T16:55:27.833Z,102997.28
2023-02-08T16:57:57.202Z,102996.53
2023-02-08T17:00:30.026Z,103001.81
2023-02-08T17:02:56.747Z,103001.88
2023-02-08T17:05:27.125Z,103004.59
2023-02-08T17:07:53.796Z,103004.63
2023-02-08T17:10:25.711Z,103007.31
2023-02-08T17:13:03.809Z,103004.66
2023-02-08T17:15:40.459Z,103004.66
2023-02-08T17:18:07.182Z,103001.16
2023-02-08T17:20:35.698Z,103005.63
2023-02-08T17:23:04.454Z,102998.56
2023-02-08T17:25:32.623Z,103003.88
2023-02-08T17:28:05.171Z,102993.28
2023-02-08T17:30:37.793Z,103004.78
2023-02-08T17:33:06.792Z,103002.16
2023-02-08T17:35:35.365Z,103007.50
2023-02-08T17:38:02.117Z,103007.50
2023-02-08T17:40:32.661Z,103003.13
2023-02-08T17:43:00.217Z,103004.91
2023-02-08T17:45:28.198Z,103016.38
2023-02-08T17:47:56.307Z,103008.44
2023-02-08T17:50:23.667Z,103010.19
2023-02-08T17:52:50.368Z,103024.34
2023-02-08T17:55:18.587Z,103019.06
2023-02-08T17:57:45.701Z,103009.38
2023-02-08T18:00:18.606Z,103017.31
2023-02-08T18:02:47.452Z,103018.19
2023-02-08T18:05:18.669Z,103012.91
2023-02-08T18:07:45.244Z,103015.56
2023-02-08T18:10:15.675Z,103017.34
2023-02-08T18:12:42.993Z,103014.69
2023-02-08T18:15:16.114Z,103019.09
2023-02-08T18:17:44.029Z,103019.09
2023-02-08T18:20:14.252Z,103017.34
2023-02-08T18:22:42.997Z,103018.22
2023-02-08T18:25:11.032Z,103013.81
2023-02-08T18:27:37.913Z,103008.53
2023-02-08T18:30:04.983Z,103015.59
2023-02-08T18:32:31.602Z,103020.00
2023-02-08T18:34:58.644Z,103024.41
2023-02-08T18:37:25.660Z,103026.13
2023-02-08T18:39:52.379Z,103026.13
2023-02-08T18:42:19.174Z,103026.13
2023-02-08T18:44:45.916Z,103033.13
2023-02-08T18:47:12.683Z,103032.25
2023-02-08T18:49:42.167Z,103026.94
2023-02-08T18:52:11.422Z,103029.63
2023-02-08T18:54:39.736Z,103029.59
2023-02-08T18:57:09.578Z,103033.09
2023-02-08T18:59:37.275Z,103037.50
2023-02-08T19:02:07.085Z,103031.34
2023-02-08T19:04:40.435Z,103033.97
2023-02-08T19:07:07.843Z,103030.47
2023-02-08T19:09:36.165Z,103035.75
2023-02-08T19:12:03.166Z,103039.22
2023-02-08T19:14:30.244Z,103038.31
2023-02-08T19:16:57.067Z,103039.16
2023-02-08T19:19:23.610Z,103040.91
2023-02-08T19:21:50.203Z,103042.69
2023-02-08T19:24:16.782Z,103040.03
2023-02-08T19:26:43.420Z,103042.63
2023-02-08T19:29:15.665Z,103035.56
2023-02-08T19:31:42.984Z,103031.16
2023-02-08T19:34:10.730Z,103035.53
2023-02-08T19:36:41.928Z,103029.38
2023-02-08T19:39:08.523Z,103039.03
2023-02-08T19:41:37.990Z,103038.13
2023-02-08T19:44:07.307Z,103031.03
2023-02-08T19:46:38.714Z,103037.13
2023-02-08T19:49:06.779Z,103037.09
2023-02-08T19:51:36.925Z,103033.53
2023-02-08T19:54:09.256Z,103037.00
2023-02-08T19:56:36.329Z,103031.66
2023-02-08T19:59:06.278Z,103039.44
2023-02-08T20:01:34.402Z,103041.16
2023-02-08T20:04:01.971Z,103041.97
2023-02-08T20:06:34.779Z,103045.34
2023-02-08T20:09:01.787Z,103047.94
2023-02-08T20:11:31.083Z,103050.56
2023-02-08T20:13:59.676Z,103049.59
2023-02-08T20:16:29.362Z,103049.50
2023-02-08T20:18:59.584Z,103045.06
2023-02-08T20:21:27.032Z,103052.06
2023-02-08T20:23:53.872Z,103045.84
2023-02-08T20:26:24.382Z,103044.06
2023-02-08T20:28:53.888Z,103036.09
2023-02-08T20:31:24.166Z,103045.69
2023-02-08T20:33:51.829Z,103040.41
2023-02-08T20:36:23.982Z,103048.19
2023-02-08T20:38:53.296Z,103042.75
2023-02-08T20:41:21.693Z,103047.00
2023-02-08T20:43:48.777Z,103049.56
2023-02-08T20:46:19.377Z,103046.88
2023-02-08T20:48:46.125Z,103058.13
2023-02-08T20:51:15.347Z,103058.97
2023-02-08T20:53:42.909Z,103058.94
2023-02-08T20:56:12.564Z,103058.94
2023-02-08T20:58:39.549Z,103064.13
2023-02-08T21:01:14.766Z,103056.19
2023-02-08T21:03:41.716Z,103054.31
2023-02-08T21:06:23.312Z,103056.03
2023-02-08T21:08:55.332Z,103055.09
2023-02-08T21:11:25.083Z,103058.56
2023-02-08T21:13:51.865Z,103061.91
2023-02-08T21:16:18.910Z,103062.78
2023-02-08T21:18:45.874Z,103059.09
2023-02-08T21:21:13.288Z,103054.72
2023-02-08T21:23:39.857Z,103055.53
2023-02-08T21:26:08.524Z,103057.22
2023-02-08T21:28:35.706Z,103059.81
2023-02-08T21:31:05.970Z,103052.63
2023-02-08T21:33:32.929Z,103056.75
2023-02-08T21:36:10.319Z,103057.59
2023-02-08T21:38:36.966Z,103047.84
2023-02-08T21:41:12.964Z,103053.16
2023-02-08T21:43:39.811Z,103051.34
2023-02-08T21:46:08.216Z,103046.97
2023-02-08T21:48:55.848Z,103037.31
2023-02-08T21:51:42.313Z,103037.28
2023-02-08T21:54:31.379Z,103041.56
2023-02-08T21:56:59.592Z,103050.16
2023-02-08T21:59:26.728Z,103041.34
2023-02-08T22:01:53.296Z,103044.81
2023-02-08T22:04:19.876Z,103046.56
2023-02-08T22:06:47.112Z,103042.78
2023-02-08T22:09:13.692Z,103044.41
2023-02-08T22:11:42.651Z,103048.75
2023-02-08T22:14:13.546Z,103054.00
2023-02-08T22:16:40.935Z,103051.25
2023-02-08T22:19:07.864Z,103045.91
2023-02-08T22:21:34.807Z,103049.28
2023-02-08T22:24:01.574Z,103048.22
2023-02-08T22:26:28.429Z,103050.69
2023-02-08T22:28:55.061Z,103048.06
2023-02-08T22:31:21.746Z,103055.88
2023-02-08T22:33:48.492Z,103047.09
2023-02-08T22:36:15.041Z,103046.13
2023-02-08T22:38:41.692Z,103044.28
2023-02-08T22:41:16.309Z,103047.75
2023-02-08T22:43:43.162Z,103039.56
2023-02-08T22:46:09.927Z,103049.97
2023-02-08T22:48:36.991Z,103053.41
2023-02-08T22:51:08.521Z,103052.34
2023-02-08T22:53:35.369Z,103052.44
2023-02-08T22:56:02.374Z,103039.38
2023-02-08T22:58:29.071Z,103040.19
2023-02-08T23:00:56.366Z,103044.47
2023-02-08T23:03:23.675Z,103050.47
2023-02-08T23:05:51.749Z,103045.97
2023-02-08T23:08:21.305Z,103047.56
2023-02-08T23:10:48.134Z,103045.81
2023-02-08T23:13:14.962Z,103038.75
2023-02-08T23:15:43.841Z,103036.81
2023-02-08T23:18:10.493Z,103043.72
2023-02-08T23:20:39.220Z,103033.22
2023-02-08T23:23:05.796Z,103034.09
2023-02-08T23:25:32.381Z,103035.50
2023-02-08T23:27:59.141Z,103032.78
2023-02-08T23:30:25.780Z,103029.09
2023-02-08T23:32:52.332Z,103035.09
2023-02-08T23:35:18.960Z,103041.19
2023-02-08T23:37:45.514Z,103029.84
2023-02-08T23:40:12.417Z,103034.19
2023-02-08T23:42:39.091Z,103029.00
2023-02-08T23:45:06.229Z,103023.88
2023-02-08T23:47:33.015Z,103024.06
2023-02-08T23:49:59.637Z,103022.41
2023-02-08T23:52:26.368Z,103030.31
2023-02-08T23:54:52.978Z,103019.72
2023-02-08T23:57:19.551Z,103018.66
2023-02-08T23:59:46.220Z,103018.50
